Vn Rebel _ — ILBR — position and weather

sailwx.info

Track history (hours):
 
Tides and Currents Weather Stations Pressure Air Temp Water Temp Dewpoint Dewpoint Depression Visibility Wind Speed Wind Dir Waves Ship Positions

Vn Rebel _

Last reported at 2014-Sep-20 03:33 UTC. Time now 2014-Sep-20 03:51 UTC.
Position N 42°47' E 005°58'.

Length 45 m; draft 2.4 m.

MMSI: 247010300.

Date/timePositionNaut miles runAvg speedWind from/ knotsBaromVisibWave heightAir tempDewpointWater temp
2014-Sep-20 03:33N 42°47' E 005°58'8 8.4
2014-Sep-20 02:33N 42°56' E 005°58'9 8.7
2014-Sep-20 01:33N 43°05' E 005°58'3 0.4
2014-Sep-19 16:29N 43°07' E 005°55'4 4.5
2014-Sep-19 15:33N 43°04' E 005°60'4 3.7
2014-Sep-19 14:32N 43°04' E 006°05'5 1.0
2014-Sep-19 09:33N 43°06' E 005°58'0 0.0
2014-Sep-19 08:33N 43°06' E 005°58'0 0.0
2014-Sep-19 07:33N 43°06' E 005°58'3 2.8
2014-Sep-19 06:33N 43°03' E 005°59'3 3.1
2014-Sep-19 05:33N 43°00' E 005°59'8 7.5
2014-Sep-19 04:32N 43°07' E 005°55'  
2014-Sep-16 21:33N 43°06' E 005°55'8 8.2
2014-Sep-16 20:33N 42°58' E 006°00'9 9.2
2014-Sep-16 19:33N 42°50' E 006°04'9 8.9
2014-Sep-16 18:32N 42°41' E 006°08'9 8.1
2014-Sep-16 17:26N 42°32' E 006°11'9 0.8
2014-Sep-16 06:08N 42°25' E 006°18'7 8.2
2014-Sep-16 05:19N 42°25' E 006°09'12 6.7
2014-Sep-16 03:33N 42°37' E 006°10'9 8.8
2014-Sep-16 02:33N 42°45' E 006°06'8 8.3
2014-Sep-16 01:33N 42°53' E 006°03'8 8.4
2014-Sep-16 00:33N 43°01' E 005°60'7 6.6
2014-Sep-15 23:33N 43°07' E 005°55'0 0.0
2014-Sep-15 18:12N 43°07' E 005°55'2 3.0
2014-Sep-15 17:31N 43°05' E 005°57'8 8.5
2014-Sep-15 16:33N 43°01' E 006°06'9 9.2
2014-Sep-15 15:33N 42°56' E 006°17'24 7.6
2014-Sep-15 12:24N 42°49' E 006°48'4 4.3
2014-Sep-15 11:32N 42°50' E 006°52'6 6.0
2014-Sep-15 10:29N 42°52' E 006°44'7 7.3
2014-Sep-15 09:33N 42°54' E 006°35'8 8.1
2014-Sep-15 08:33N 42°56' E 006°24'8 8.0
2014-Sep-15 07:33N 42°58' E 006°14'9 8.6
2014-Sep-15 06:33N 43°02' E 006°03'8 7.8
2014-Sep-15 05:33N 43°07' E 005°55'  
Track history (hours):
 
Tides and Currents Weather Stations Pressure Air Temp Water Temp Dewpoint Dewpoint Depression Visibility Wind Speed Wind Dir Waves Ship Positions

Vn Rebel _

Last reported at 2014-Sep-20 03:33 UTC. Time now 2014-Sep-20 03:51 UTC.
Position N 42°47' E 005°58'.

Length 45 m; draft 2.4 m.

MMSI: 247010300.

Date/timePositionNaut miles runAvg speedWind from/ knotsBaromVisibWave heightAir tempDewpointWater temp
2014-Sep-20 03:33N 42°47' E 005°58'8 8.4
2014-Sep-20 02:33N 42°56' E 005°58'9 8.7
2014-Sep-20 01:33N 43°05' E 005°58'3 0.4
2014-Sep-19 16:29N 43°07' E 005°55'4 4.5
2014-Sep-19 15:33N 43°04' E 005°60'4 3.7
2014-Sep-19 14:32N 43°04' E 006°05'5 1.0
2014-Sep-19 09:33N 43°06' E 005°58'0 0.0
2014-Sep-19 08:33N 43°06' E 005°58'0 0.0
2014-Sep-19 07:33N 43°06' E 005°58'3 2.8
2014-Sep-19 06:33N 43°03' E 005°59'3 3.1
2014-Sep-19 05:33N 43°00' E 005°59'8 7.5
2014-Sep-19 04:32N 43°07' E 005°55'  
2014-Sep-16 21:33N 43°06' E 005°55'8 8.2
2014-Sep-16 20:33N 42°58' E 006°00'9 9.2
2014-Sep-16 19:33N 42°50' E 006°04'9 8.9
2014-Sep-16 18:32N 42°41' E 006°08'9 8.1
2014-Sep-16 17:26N 42°32' E 006°11'9 0.8
2014-Sep-16 06:08N 42°25' E 006°18'7 8.2
2014-Sep-16 05:19N 42°25' E 006°09'12 6.7
2014-Sep-16 03:33N 42°37' E 006°10'9 8.8
2014-Sep-16 02:33N 42°45' E 006°06'8 8.3
2014-Sep-16 01:33N 42°53' E 006°03'8 8.4
2014-Sep-16 00:33N 43°01' E 005°60'7 6.6
2014-Sep-15 23:33N 43°07' E 005°55'0 0.0
2014-Sep-15 18:12N 43°07' E 005°55'2 3.0
2014-Sep-15 17:31N 43°05' E 005°57'8 8.5
2014-Sep-15 16:33N 43°01' E 006°06'9 9.2
2014-Sep-15 15:33N 42°56' E 006°17'24 7.6
2014-Sep-15 12:24N 42°49' E 006°48'4 4.3
2014-Sep-15 11:32N 42°50' E 006°52'6 6.0
2014-Sep-15 10:29N 42°52' E 006°44'7 7.3
2014-Sep-15 09:33N 42°54' E 006°35'8 8.1
2014-Sep-15 08:33N 42°56' E 006°24'8 8.0
2014-Sep-15 07:33N 42°58' E 006°14'9 8.6
2014-Sep-15 06:33N 43°02' E 006°03'8 7.8
2014-Sep-15 05:33N 43°07' E 005°55'  

Dump ship's entire track history